createdAt,value
2022-10-30T00:02:15.529Z,10.75
2022-10-30T00:04:44.515Z,10.75
2022-10-30T00:07:14.044Z,10.75
2022-10-30T00:09:44.350Z,10.77
2022-10-30T00:12:14.635Z,10.78
2022-10-30T00:14:46.395Z,10.79
2022-10-30T00:17:15.835Z,10.78
2022-10-30T00:19:47.651Z,10.82
2022-10-30T00:22:17.750Z,10.84
2022-10-30T00:24:48.048Z,10.87
2022-10-30T00:27:18.948Z,10.89
2022-10-30T00:29:51.219Z,10.89
2022-10-30T00:32:23.042Z,10.89
2022-10-30T00:34:57.788Z,10.90
2022-10-30T00:37:26.835Z,10.92
2022-10-30T00:39:56.661Z,10.97
2022-10-30T00:42:31.039Z,11.04
2022-10-30T00:45:00.205Z,11.09
2022-10-30T00:47:38.776Z,11.15
2022-10-30T00:50:20.837Z,11.22
2022-10-30T00:52:58.269Z,11.28
2022-10-30T00:55:34.179Z,11.30
2022-10-30T00:58:08.167Z,11.27
2022-10-30T01:00:41.484Z,11.23
2022-10-30T01:03:13.654Z,11.21
2022-10-30T01:05:49.922Z,11.23
2022-10-30T01:08:20.438Z,11.27
2022-10-30T01:10:50.492Z,11.27
2022-10-30T01:13:23.881Z,11.26
2022-10-30T01:16:17.112Z,11.26
2022-10-30T01:19:17.260Z,11.22
2022-10-30T01:22:07.586Z,11.16
2022-10-30T01:25:26.251Z,11.11
2022-10-30T01:28:10.542Z,11.05
2022-10-30T01:30:56.041Z,11.06
2022-10-30T01:33:55.397Z,11.09
2022-10-30T01:36:43.898Z,11.10
2022-10-30T01:39:23.590Z,11.10
2022-10-30T01:41:55.008Z,11.10
2022-10-30T01:44:32.941Z,11.11
2022-10-30T01:47:35.494Z,11.13
2022-10-30T01:50:45.803Z,11.22
2022-10-30T01:53:38.842Z,11.30
2022-10-30T01:56:34.562Z,11.35
2022-10-30T02:08:57.282Z,11.53
2022-10-30T02:11:29.363Z,11.56
2022-10-30T02:14:01.583Z,11.57
2022-10-30T02:16:36.552Z,11.59
2022-10-30T02:19:07.029Z,11.61
2022-10-30T02:21:38.734Z,11.55
2022-10-30T02:24:08.075Z,11.49
2022-10-30T02:33:23.884Z,11.13
2022-10-30T02:35:55.213Z,11.09
2022-10-30T02:38:27.081Z,11.02
2022-10-30T02:40:58.866Z,10.92
2022-10-30T02:43:29.415Z,10.86
2022-10-30T02:46:00.060Z,10.78
2022-10-30T02:48:34.402Z,10.71
2022-10-30T02:51:05.683Z,10.66
2022-10-30T02:53:38.954Z,10.61
2022-10-30T02:56:13.859Z,10.58
2022-10-30T02:58:44.324Z,10.55
2022-10-30T03:01:20.245Z,10.49
2022-10-30T03:03:51.749Z,10.43
2022-10-30T03:07:38.016Z,10.39
2022-10-30T03:10:07.838Z,10.35
2022-10-30T03:12:39.368Z,10.38
2022-10-30T03:15:10.336Z,10.43
2022-10-30T03:20:11.037Z,10.45
2022-10-30T03:25:48.400Z,10.49
2022-10-30T03:28:19.140Z,10.48
2022-10-30T03:30:49.339Z,10.45
2022-10-30T03:33:20.111Z,10.44
2022-10-30T03:35:50.098Z,10.44
2022-10-30T03:38:20.485Z,10.44
2022-10-30T03:40:51.737Z,10.46
2022-10-30T03:43:22.278Z,10.46
2022-10-30T03:45:54.708Z,10.48
2022-10-30T03:48:26.395Z,10.48
2022-10-30T03:50:57.795Z,10.48
2022-10-30T03:53:28.957Z,10.48
2022-10-30T03:56:00.719Z,10.49
2022-10-30T03:58:32.137Z,10.49
2022-10-30T04:01:07.393Z,10.48
2022-10-30T04:03:39.157Z,10.48
2022-10-30T04:06:13.537Z,10.49
2022-10-30T04:08:43.442Z,10.51
2022-10-30T04:11:14.844Z,10.51
2022-10-30T04:13:46.128Z,10.51
2022-10-30T04:16:15.574Z,10.51
2022-10-30T04:18:48.136Z,10.53
2022-10-30T04:21:17.536Z,10.55
2022-10-30T04:23:49.697Z,10.57
2022-10-30T04:26:19.816Z,10.58
2022-10-30T04:28:52.406Z,10.59
2022-10-30T04:31:23.648Z,10.61
2022-10-30T04:33:55.812Z,10.62
2022-10-30T04:36:34.435Z,10.63
2022-10-30T04:39:04.726Z,10.64
2022-10-30T04:41:35.154Z,10.67
2022-10-30T04:44:09.235Z,10.67
2022-10-30T04:46:42.547Z,10.64
2022-10-30T04:49:12.910Z,10.61
2022-10-30T04:51:42.599Z,10.57
2022-10-30T04:54:13.030Z,10.55
2022-10-30T04:56:43.690Z,10.53
2022-10-30T04:59:13.650Z,10.54
2022-10-30T05:01:42.820Z,10.55
2022-10-30T05:04:12.101Z,10.55
2022-10-30T05:07:35.649Z,10.56
2022-10-30T05:10:05.990Z,10.57
2022-10-30T05:12:36.851Z,10.59
2022-10-30T05:15:07.363Z,10.61
2022-10-30T05:17:39.622Z,10.61
2022-10-30T05:20:14.892Z,10.62
2022-10-30T05:22:59.839Z,10.62
2022-10-30T05:25:31.002Z,10.61
2022-10-30T05:28:04.235Z,10.61
2022-10-30T05:30:38.321Z,10.58
2022-10-30T05:33:13.905Z,10.52
2022-10-30T05:35:43.848Z,10.51
2022-10-30T05:38:13.626Z,10.51
2022-10-30T05:40:47.779Z,10.51
2022-10-30T05:43:18.281Z,10.51
2022-10-30T05:45:50.714Z,10.47
2022-10-30T05:48:20.073Z,10.44
2022-10-30T05:50:50.494Z,10.37
2022-10-30T05:53:30.942Z,10.26
2022-10-30T05:56:02.596Z,10.17
2022-10-30T05:58:35.988Z,10.16
2022-10-30T06:01:10.992Z,10.19
2022-10-30T06:03:45.739Z,10.19
2022-10-30T06:06:15.300Z,10.19
2022-10-30T06:08:46.353Z,10.19
2022-10-30T06:11:34.879Z,10.22
2022-10-30T06:14:05.458Z,10.24
2022-10-30T06:16:46.477Z,10.28
2022-10-30T06:19:25.217Z,10.32
2022-10-30T06:21:57.931Z,10.37
2022-10-30T06:24:35.818Z,10.45
2022-10-30T06:27:23.555Z,10.52
2022-10-30T06:29:55.348Z,10.55
2022-10-30T06:32:24.547Z,10.61
2022-10-30T06:34:59.894Z,10.69
2022-10-30T06:37:31.678Z,10.86
2022-10-30T06:40:10.484Z,10.98
2022-10-30T06:43:01.428Z,11.14
2022-10-30T06:45:36.401Z,11.42
2022-10-30T06:48:05.600Z,11.63
2022-10-30T06:50:42.494Z,12.02
2022-10-30T06:53:16.073Z,11.95
2022-10-30T06:55:46.302Z,11.94
2022-10-30T06:58:40.924Z,12.04
2022-10-30T07:01:15.653Z,12.17
2022-10-30T07:04:12.091Z,12.31
2022-10-30T07:07:55.543Z,12.36
2022-10-30T07:10:27.122Z,12.46
2022-10-30T07:13:16.273Z,12.63
2022-10-30T07:15:59.692Z,12.83
2022-10-30T07:18:35.613Z,12.99
2022-10-30T07:21:05.789Z,13.03
2022-10-30T07:23:36.523Z,13.12
2022-10-30T07:26:24.103Z,13.22
2022-10-30T07:28:56.612Z,13.31
2022-10-30T07:31:41.864Z,13.34
2022-10-30T07:34:27.003Z,13.42
2022-10-30T07:37:32.447Z,13.52
2022-10-30T07:40:12.712Z,13.66
2022-10-30T07:42:59.207Z,13.69
2022-10-30T07:45:44.033Z,13.78
2022-10-30T07:48:39.173Z,13.86
2022-10-30T07:51:25.575Z,13.87
2022-10-30T07:53:54.904Z,13.97
2022-10-30T07:56:25.934Z,14.15
2022-10-30T07:59:09.222Z,14.27
2022-10-30T08:01:57.832Z,14.36
2022-10-30T08:04:37.019Z,14.47
2022-10-30T08:07:33.684Z,14.68
2022-10-30T08:10:06.468Z,14.83
2022-10-30T08:13:20.132Z,14.76
2022-10-30T08:20:40.887Z,14.56
2022-10-30T08:23:20.683Z,14.46
2022-10-30T08:26:02.543Z,14.35
2022-10-30T08:28:34.082Z,14.12
2022-10-30T08:36:37.281Z,13.84
2022-10-30T08:39:06.593Z,13.80
2022-10-30T08:42:21.656Z,13.82
2022-10-30T08:49:58.205Z,13.92
2022-10-30T08:52:53.890Z,13.85
2022-10-30T08:55:33.767Z,13.82
2022-10-30T08:58:24.579Z,13.85
2022-10-30T09:01:48.712Z,13.94
2022-10-30T09:04:30.401Z,14.02
2022-10-30T09:07:23.997Z,14.01
2022-10-30T09:10:58.201Z,13.90
2022-10-30T09:13:31.648Z,13.83
2022-10-30T09:24:08.846Z,13.91
2022-10-30T09:31:19.750Z,14.18
2022-10-30T09:34:49.219Z,14.29
2022-10-30T09:37:24.827Z,14.37
2022-10-30T09:44:20.298Z,14.38
2022-10-30T09:48:00.030Z,14.40
2022-10-30T09:50:44.065Z,14.51
2022-10-30T09:53:39.796Z,14.65
2022-10-30T09:57:01.061Z,14.75
2022-10-30T10:00:27.898Z,14.86
2022-10-30T10:04:04.433Z,15.10
2022-10-30T10:12:08.907Z,15.05
2022-10-30T10:23:35.111Z,14.99
2022-10-30T10:26:39.227Z,15.01
2022-10-30T10:33:55.158Z,15.27
2022-10-30T10:48:33.380Z,17.59
2022-10-30T10:51:39.674Z,17.36
2022-10-30T10:54:19.413Z,17.02
2022-10-30T10:56:52.177Z,16.76
2022-10-30T10:59:35.268Z,16.86
2022-10-30T11:02:25.353Z,17.52
2022-10-30T11:05:00.456Z,17.98
2022-10-30T11:07:51.408Z,17.90
2022-10-30T11:10:21.724Z,17.80
2022-10-30T11:12:52.365Z,17.52
2022-10-30T11:15:52.224Z,17.28
2022-10-30T11:18:22.023Z,17.19
2022-10-30T11:21:11.075Z,17.17
2022-10-30T11:23:44.786Z,16.94
2022-10-30T11:26:20.720Z,16.74
2022-10-30T11:28:54.205Z,16.62
2022-10-30T11:31:38.400Z,16.49
2022-10-30T11:34:19.717Z,16.30
2022-10-30T11:36:50.880Z,16.14
2022-10-30T11:39:29.317Z,15.98
2022-10-30T11:42:07.093Z,15.92
2022-10-30T11:44:43.115Z,15.86
2022-10-30T11:47:16.079Z,15.80
2022-10-30T11:49:50.327Z,15.77
2022-10-30T11:52:24.285Z,15.75
2022-10-30T11:55:03.120Z,15.68
2022-10-30T11:57:41.203Z,15.57
2022-10-30T12:00:45.697Z,15.44
2022-10-30T12:03:31.195Z,15.35
2022-10-30T12:06:29.713Z,15.29
2022-10-30T12:09:01.226Z,15.21
2022-10-30T12:11:35.079Z,15.13
2022-10-30T12:14:06.741Z,15.04
2022-10-30T12:16:36.658Z,15.01
2022-10-30T12:19:15.787Z,15.04
2022-10-30T12:21:54.242Z,15.10
2022-10-30T12:24:37.443Z,15.14
2022-10-30T12:27:19.725Z,15.09
2022-10-30T12:30:09.579Z,15.16
2022-10-30T12:32:49.007Z,15.22
2022-10-30T12:35:43.629Z,15.42
2022-10-30T12:38:33.675Z,15.68
2022-10-30T12:41:41.286Z,15.89
2022-10-30T12:44:22.148Z,16.17
2022-10-30T12:47:07.747Z,16.26
2022-10-30T12:49:56.115Z,16.24
2022-10-30T12:52:38.141Z,16.15
2022-10-30T12:55:22.226Z,16.02
2022-10-30T12:58:20.820Z,15.95
2022-10-30T13:01:12.525Z,15.82
2022-10-30T13:03:55.813Z,15.65
2022-10-30T13:06:36.096Z,15.53
2022-10-30T13:09:25.816Z,15.43
2022-10-30T13:12:05.786Z,15.30
2022-10-30T13:14:47.663Z,15.25
2022-10-30T13:17:22.555Z,15.22
2022-10-30T13:19:54.106Z,15.15
2022-10-30T13:22:48.134Z,15.07
2022-10-30T13:25:55.841Z,14.97
2022-10-30T13:28:34.426Z,14.93
2022-10-30T13:31:48.002Z,14.95
2022-10-30T13:34:45.333Z,14.98
2022-10-30T13:37:47.523Z,15.00
2022-10-30T13:40:28.044Z,15.04
2022-10-30T13:43:27.282Z,15.01
2022-10-30T13:46:08.020Z,15.04
2022-10-30T13:48:50.322Z,15.10
2022-10-30T13:51:44.394Z,15.19
2022-10-30T13:54:15.672Z,15.25
2022-10-30T13:56:50.163Z,15.23
2022-10-30T13:59:49.214Z,15.26
2022-10-30T14:02:37.567Z,15.24
2022-10-30T14:05:52.248Z,15.20
2022-10-30T14:08:33.951Z,15.18
2022-10-30T14:11:14.851Z,15.13
2022-10-30T14:13:59.211Z,15.09
2022-10-30T14:16:35.786Z,15.04
2022-10-30T14:19:08.037Z,15.02
2022-10-30T14:21:43.492Z,14.95
2022-10-30T14:24:33.958Z,14.90
2022-10-30T14:27:04.987Z,14.89
2022-10-30T14:29:37.324Z,14.81
2022-10-30T14:32:15.206Z,14.73
2022-10-30T14:34:56.205Z,14.70
2022-10-30T14:37:27.271Z,14.62
2022-10-30T14:39:59.205Z,14.59
2022-10-30T14:42:41.211Z,14.53
2022-10-30T14:45:26.993Z,14.56
2022-10-30T14:48:07.030Z,14.64
2022-10-30T14:50:55.117Z,14.71
2022-10-30T14:53:52.276Z,14.79
2022-10-30T14:56:36.940Z,14.83
2022-10-30T14:59:15.960Z,14.73
2022-10-30T15:01:53.352Z,14.58
2022-10-30T15:04:57.511Z,14.44
2022-10-30T15:11:38.389Z,14.18
2022-10-30T15:14:21.720Z,14.12
2022-10-30T15:17:04.529Z,14.05
2022-10-30T15:19:37.568Z,14.00
2022-10-30T15:22:21.019Z,13.98
2022-10-30T15:24:53.004Z,13.96
2022-10-30T15:27:51.432Z,13.93
2022-10-30T15:30:23.912Z,13.88
2022-10-30T15:32:58.015Z,13.82
2022-10-30T15:35:29.242Z,13.71
2022-10-30T15:38:11.154Z,13.58
2022-10-30T15:40:42.280Z,13.50
2022-10-30T15:43:15.185Z,13.45
2022-10-30T15:45:50.943Z,13.39
2022-10-30T15:48:36.217Z,13.31
2022-10-30T15:51:08.622Z,13.21
2022-10-30T15:53:43.867Z,13.17
2022-10-30T15:56:59.805Z,13.16
2022-10-30T15:59:31.566Z,13.21
2022-10-30T16:02:02.561Z,13.24
2022-10-30T16:04:36.350Z,13.22
2022-10-30T16:08:00.406Z,13.21
2022-10-30T16:10:38.194Z,13.25
2022-10-30T16:13:15.531Z,13.27
2022-10-30T16:15:47.871Z,13.29
2022-10-30T16:18:27.695Z,13.27
2022-10-30T16:21:02.652Z,13.17
2022-10-30T16:23:42.862Z,13.14
2022-10-30T16:26:37.154Z,13.13
2022-10-30T16:29:15.931Z,12.96
2022-10-30T16:31:51.452Z,12.82
2022-10-30T16:34:27.648Z,12.76
2022-10-30T16:36:57.407Z,12.73
2022-10-30T16:39:30.067Z,12.63
2022-10-30T16:42:01.644Z,12.56
2022-10-30T16:44:34.369Z,12.49
2022-10-30T16:47:26.991Z,12.40
2022-10-30T16:50:00.603Z,12.33
2022-10-30T16:52:39.240Z,12.30
2022-10-30T16:55:20.568Z,12.29
2022-10-30T16:57:58.146Z,12.26
2022-10-30T17:00:34.040Z,12.23
2022-10-30T17:03:14.113Z,12.23
2022-10-30T17:05:59.943Z,12.27
2022-10-30T17:08:36.963Z,12.29
2022-10-30T17:11:18.957Z,12.28
2022-10-30T17:14:03.442Z,12.19
2022-10-30T17:16:39.213Z,12.12
2022-10-30T17:19:35.131Z,12.11
2022-10-30T17:22:14.451Z,12.12
2022-10-30T17:24:45.584Z,12.17
2022-10-30T17:27:24.577Z,12.21
2022-10-30T17:29:59.693Z,12.11
2022-10-30T17:32:44.101Z,11.99
2022-10-30T17:35:19.800Z,11.86
2022-10-30T17:37:51.085Z,11.80
2022-10-30T17:40:21.945Z,11.77
2022-10-30T17:42:52.444Z,11.81
2022-10-30T17:48:48.743Z,11.95
2022-10-30T17:51:20.727Z,11.90
2022-10-30T18:13:43.941Z,11.78
2022-10-30T18:16:18.187Z,11.81
2022-10-30T18:19:13.961Z,11.85
2022-10-30T18:21:48.991Z,11.85
2022-10-30T18:24:23.200Z,11.74
2022-10-30T18:26:58.082Z,11.62
2022-10-30T18:29:33.504Z,11.50
2022-10-30T18:32:09.194Z,11.49
2022-10-30T18:34:42.987Z,11.55
2022-10-30T18:37:16.568Z,11.59
2022-10-30T18:39:47.802Z,11.62
2022-10-30T18:42:19.129Z,11.64
2022-10-30T18:44:51.570Z,11.68
2022-10-30T18:47:22.386Z,11.64
2022-10-30T18:49:57.069Z,11.56
2022-10-30T18:52:29.755Z,11.50
2022-10-30T18:55:00.855Z,11.48
2022-10-30T18:57:31.583Z,11.47
2022-10-30T19:00:05.017Z,11.48
2022-10-30T19:02:39.765Z,11.46
2022-10-30T19:05:23.576Z,11.45
2022-10-30T19:07:55.898Z,11.43
2022-10-30T19:10:30.440Z,11.32
2022-10-30T19:13:15.041Z,11.18
2022-10-30T19:15:48.520Z,11.10
2022-10-30T19:18:21.600Z,11.07
2022-10-30T19:24:54.937Z,10.74
2022-10-30T21:25:47.108Z,8.98
2022-10-30T21:28:17.450Z,8.95
2022-10-30T21:31:13.958Z,8.89
2022-10-30T21:33:49.559Z,8.84
2022-10-30T21:36:55.133Z,8.80
2022-10-30T22:09:53.839Z,8.79
2022-10-30T22:12:24.194Z,8.85
2022-10-30T22:14:54.211Z,8.86
2022-10-30T22:17:29.409Z,8.84
2022-10-30T22:20:05.874Z,8.79
2022-10-30T22:22:37.851Z,8.73
2022-10-30T22:25:08.464Z,8.71
2022-10-30T22:27:37.763Z,8.70
2022-10-30T22:30:09.997Z,8.73
2022-10-30T22:32:39.140Z,8.70
2022-10-30T22:35:11.259Z,8.66
2022-10-30T22:37:42.109Z,8.62
2022-10-30T22:40:15.960Z,8.58
2022-10-30T22:42:49.513Z,8.54
2022-10-30T22:45:22.138Z,8.49
2022-10-30T22:47:51.197Z,8.49
2022-10-30T23:13:50.437Z,8.58
2022-10-30T23:16:23.094Z,8.51
2022-10-30T23:19:02.918Z,8.43
2022-10-30T23:21:41.984Z,8.33
2022-10-30T23:24:13.285Z,8.30
2022-10-30T23:26:44.533Z,8.30
2022-10-30T23:29:15.262Z,8.31
2022-10-30T23:34:49.307Z,8.29
2022-10-30T23:37:20.875Z,8.29
2022-10-30T23:39:52.764Z,8.24
2022-10-30T23:42:25.765Z,8.15
2022-10-30T23:44:58.597Z,8.09
2022-10-30T23:47:31.934Z,8.09
2022-10-30T23:50:02.942Z,8.17
2022-10-30T23:52:33.355Z,8.21
2022-10-30T23:55:06.512Z,8.27
2022-10-30T23:57:38.770Z,8.32
